sim
Sign-in with your pilot id or email,
or register
Callsign
Passwort

Schedule Details

Flight Number: OEO2508
Departure: Hamburg Airport (EDDH) at 05:10
Arrival: Geneva International Airport (LSGG) at 06:55

Weather Information
Getting current METAR information for EDDH 101850Z 11010KT 9999 -RA BKN043 08/00 Q1014 NOSIG
Getting current METAR information for LSGG 101850Z 25004KT 210V280 CAVOK 12/03 Q1012 NOSIG

Schedule Frequency

Route Map